createdAt,value
2022-12-27T00:01:18.847Z,6.50
2022-12-27T00:03:49.590Z,6.40
2022-12-27T00:06:22.142Z,6.50
2022-12-27T00:08:55.399Z,6.40
2022-12-27T00:11:30.075Z,6.40
2022-12-27T00:14:02.075Z,6.40
2022-12-27T00:16:32.771Z,6.40
2022-12-27T00:19:03.764Z,6.40
2022-12-27T00:21:34.247Z,6.40
2022-12-27T00:24:07.587Z,6.50
2022-12-27T00:26:39.597Z,6.40
2022-12-27T00:29:10.635Z,6.40
2022-12-27T00:31:41.037Z,6.40
2022-12-27T00:34:13.848Z,6.40
2022-12-27T00:36:44.239Z,6.30
2022-12-27T00:39:17.487Z,6.40
2022-12-27T00:41:49.181Z,6.30
2022-12-27T00:44:20.383Z,6.30
2022-12-27T00:46:50.934Z,6.40
2022-12-27T00:49:25.742Z,6.30
2022-12-27T00:51:56.732Z,6.30
2022-12-27T00:54:29.769Z,6.30
2022-12-27T00:57:01.852Z,6.30
2022-12-27T00:59:32.298Z,6.30
2022-12-27T01:02:03.014Z,6.30
2022-12-27T01:04:33.577Z,6.30
2022-12-27T01:07:03.901Z,6.40
2022-12-27T01:09:37.081Z,6.30
2022-12-27T01:12:08.155Z,6.30
2022-12-27T01:14:38.652Z,6.30
2022-12-27T01:17:11.333Z,6.20
2022-12-27T01:19:42.789Z,6.40
2022-12-27T01:22:13.130Z,6.40
2022-12-27T01:24:46.027Z,6.40
2022-12-27T01:27:16.361Z,6.30
2022-12-27T01:29:46.769Z,6.40
2022-12-27T01:32:17.161Z,6.30
2022-12-27T01:34:47.489Z,6.30
2022-12-27T01:37:18.308Z,6.50
2022-12-27T01:39:51.304Z,6.40
2022-12-27T01:42:34.910Z,6.30
2022-12-27T01:45:07.371Z,6.30
2022-12-27T01:47:47.140Z,6.30
2022-12-27T01:50:25.690Z,6.30
2022-12-27T01:52:58.099Z,6.30
2022-12-27T01:55:38.622Z,6.30
2022-12-27T01:58:14.548Z,6.30
2022-12-27T02:00:47.827Z,6.40
2022-12-27T02:03:25.073Z,6.40
2022-12-27T02:05:55.862Z,6.30
2022-12-27T02:08:39.694Z,6.30
2022-12-27T02:11:13.416Z,6.30
2022-12-27T02:13:47.276Z,6.40
2022-12-27T02:16:21.103Z,6.30
2022-12-27T02:18:51.425Z,6.40
2022-12-27T02:21:52.367Z,6.40
2022-12-27T02:24:53.053Z,6.30
2022-12-27T02:27:45.311Z,6.30
2022-12-27T02:30:18.428Z,6.30
2022-12-27T02:32:56.220Z,6.30
2022-12-27T02:35:31.624Z,6.30
2022-12-27T02:38:08.228Z,6.20
2022-12-27T02:40:51.949Z,6.20
2022-12-27T02:43:34.888Z,6.30
2022-12-27T02:46:27.289Z,6.20
2022-12-27T02:49:11.704Z,6.20
2022-12-27T02:52:15.811Z,6.20
2022-12-27T02:55:10.869Z,6.10
2022-12-27T02:57:43.947Z,6.20
2022-12-27T03:00:29.890Z,6.10
2022-12-27T03:03:24.876Z,6.10
2022-12-27T03:06:39.363Z,6.10
2022-12-27T03:09:48.555Z,6.10
2022-12-27T03:12:37.876Z,6.10
2022-12-27T03:15:33.238Z,6.10
2022-12-27T03:18:13.417Z,6.10
2022-12-27T03:21:00.378Z,6.10
2022-12-27T03:23:44.374Z,6.20
2022-12-27T03:26:17.592Z,6.10
2022-12-27T03:29:01.472Z,6.10
2022-12-27T03:31:48.047Z,6.10
2022-12-27T03:34:40.120Z,6.10
2022-12-27T03:37:26.194Z,6.10
2022-12-27T03:40:06.524Z,6.10
2022-12-27T03:42:56.264Z,6.10
2022-12-27T03:45:44.081Z,6.10
2022-12-27T03:48:17.031Z,6.10
2022-12-27T03:50:56.994Z,6.10
2022-12-27T03:53:36.232Z,6.20
2022-12-27T03:56:07.269Z,6.10
2022-12-27T03:58:38.030Z,6.00
2022-12-27T04:01:08.659Z,6.00
2022-12-27T04:03:41.585Z,6.00
2022-12-27T04:06:14.505Z,6.00
2022-12-27T04:08:57.212Z,6.00
2022-12-27T04:11:40.342Z,6.00
2022-12-27T04:14:23.027Z,6.00
2022-12-27T04:17:05.661Z,6.00
2022-12-27T04:19:48.391Z,6.00
2022-12-27T04:22:33.662Z,6.00
2022-12-27T04:25:16.393Z,6.00
2022-12-27T04:27:59.056Z,6.00
2022-12-27T04:30:41.804Z,6.00
2022-12-27T04:33:24.478Z,6.00
2022-12-27T04:35:54.982Z,6.00
2022-12-27T04:38:27.867Z,6.00
2022-12-27T04:41:10.579Z,6.00
2022-12-27T04:43:53.217Z,6.10
2022-12-27T04:46:39.904Z,6.00
2022-12-27T04:49:27.022Z,6.00
2022-12-27T04:52:11.122Z,6.00
2022-12-27T04:54:59.468Z,5.90
2022-12-27T04:57:31.275Z,5.90
2022-12-27T05:00:13.925Z,5.90
2022-12-27T05:02:44.938Z,5.90
2022-12-27T05:05:15.664Z,5.90
2022-12-27T05:07:58.417Z,5.90
2022-12-27T05:10:44.193Z,5.90
2022-12-27T05:13:27.563Z,5.80
2022-12-27T05:15:57.969Z,6.00
2022-12-27T05:18:30.363Z,5.80
2022-12-27T05:21:05.594Z,5.80
2022-12-27T05:23:50.091Z,5.90
2022-12-27T05:26:29.598Z,5.80
2022-12-27T05:29:01.689Z,5.80
2022-12-27T05:31:32.852Z,5.90
2022-12-27T05:34:03.471Z,5.90
2022-12-27T05:36:33.718Z,5.90
2022-12-27T05:39:04.364Z,5.90
2022-12-27T05:41:37.302Z,5.90
2022-12-27T05:44:07.953Z,5.80
2022-12-27T05:46:38.431Z,5.90
2022-12-27T05:49:09.781Z,6.00
2022-12-27T05:51:40.328Z,5.80
2022-12-27T05:54:11.009Z,5.80
2022-12-27T05:56:44.454Z,5.80
2022-12-27T05:59:15.263Z,5.80
2022-12-27T06:01:45.685Z,5.80
2022-12-27T06:04:16.305Z,5.80
2022-12-27T06:06:46.593Z,5.80
2022-12-27T06:09:17.573Z,5.90
2022-12-27T06:11:50.550Z,5.90
2022-12-27T06:14:20.980Z,5.80
2022-12-27T06:16:52.439Z,5.90
2022-12-27T06:19:22.792Z,5.80
2022-12-27T06:21:53.184Z,5.90
2022-12-27T06:24:23.520Z,5.90
2022-12-27T06:26:56.953Z,5.90
2022-12-27T06:29:27.279Z,5.90
2022-12-27T06:31:57.941Z,5.80
2022-12-27T06:34:28.411Z,5.80
2022-12-27T06:36:59.417Z,5.80
2022-12-27T06:39:29.715Z,5.90
2022-12-27T06:42:02.676Z,5.80
2022-12-27T06:44:33.013Z,5.80
2022-12-27T06:47:03.323Z,5.80
2022-12-27T06:49:33.602Z,5.90
2022-12-27T06:52:04.018Z,5.80
2022-12-27T06:54:34.354Z,5.80
2022-12-27T06:57:07.496Z,5.80
2022-12-27T06:59:37.803Z,5.80
2022-12-27T07:02:08.988Z,5.90
2022-12-27T07:04:39.367Z,5.80
2022-12-27T07:07:15.466Z,5.80
2022-12-27T07:09:46.254Z,5.80
2022-12-27T07:12:19.236Z,5.80
2022-12-27T07:14:49.535Z,5.80
2022-12-27T07:17:19.895Z,5.80
2022-12-27T07:19:50.336Z,5.80
2022-12-27T07:22:20.628Z,5.80
2022-12-27T07:24:50.953Z,5.80
2022-12-27T07:27:23.876Z,5.80
2022-12-27T07:29:54.716Z,5.90
2022-12-27T07:32:25.057Z,5.90
2022-12-27T07:34:55.564Z,5.80
2022-12-27T07:37:25.904Z,5.80
2022-12-27T07:39:56.226Z,5.80
2022-12-27T07:42:29.197Z,5.90
2022-12-27T07:44:59.521Z,5.80
2022-12-27T07:47:29.806Z,5.80
2022-12-27T07:50:00.101Z,5.90
2022-12-27T07:52:30.435Z,5.80
2022-12-27T07:55:00.791Z,5.80
2022-12-27T07:57:34.253Z,5.80
2022-12-27T08:00:04.686Z,5.90
2022-12-27T08:02:43.553Z,5.80
2022-12-27T08:05:16.088Z,5.80
2022-12-27T08:07:46.433Z,5.80
2022-12-27T08:10:16.803Z,5.80
2022-12-27T08:12:49.736Z,5.80
2022-12-27T08:15:20.149Z,5.80
2022-12-27T08:17:50.535Z,5.80
2022-12-27T08:20:20.854Z,5.80
2022-12-27T08:22:51.183Z,5.80
2022-12-27T08:25:21.962Z,5.80
2022-12-27T08:27:55.082Z,5.80
2022-12-27T08:30:25.500Z,5.90
2022-12-27T08:32:55.867Z,5.90
2022-12-27T08:35:51.593Z,5.80
2022-12-27T08:38:16.568Z,5.90
2022-12-27T08:40:47.889Z,5.90
2022-12-27T08:43:20.893Z,5.90
2022-12-27T08:45:51.260Z,5.90
2022-12-27T08:48:21.721Z,5.90
2022-12-27T08:50:52.099Z,5.90
2022-12-27T08:53:22.468Z,5.90
2022-12-27T08:55:56.109Z,5.90
2022-12-27T08:58:29.271Z,6.00
2022-12-27T09:00:59.710Z,6.00
2022-12-27T09:03:30.131Z,6.00
2022-12-27T09:06:10.614Z,6.10
2022-12-27T09:08:42.166Z,6.00
2022-12-27T09:11:14.874Z,6.00
2022-12-27T09:13:48.549Z,6.10
2022-12-27T09:16:20.709Z,6.10
2022-12-27T09:18:52.363Z,6.10
2022-12-27T09:21:24.404Z,6.10
2022-12-27T09:23:55.122Z,6.20
2022-12-27T09:26:26.772Z,6.20
2022-12-27T09:29:00.644Z,6.10
2022-12-27T09:31:31.547Z,6.20
2022-12-27T09:34:02.718Z,6.20
2022-12-27T09:36:33.682Z,6.20
2022-12-27T09:39:04.026Z,6.20
2022-12-27T09:44:55.697Z,6.30
2022-12-27T09:47:30.023Z,6.30
2022-12-27T09:50:04.913Z,6.40
2022-12-27T09:52:39.642Z,6.40
2022-12-27T09:55:18.747Z,6.40
2022-12-27T09:57:51.208Z,6.40
2022-12-27T10:00:34.857Z,6.40
2022-12-27T10:03:08.973Z,6.40
2022-12-27T10:05:40.981Z,6.40
2022-12-27T10:08:30.743Z,6.50
2022-12-27T10:11:31.254Z,6.50
2022-12-27T10:14:08.923Z,6.50
2022-12-27T10:16:53.398Z,6.60
2022-12-27T10:19:32.927Z,6.60
2022-12-27T10:22:13.192Z,6.60
2022-12-27T10:24:47.786Z,6.70
2022-12-27T10:27:28.051Z,6.70
2022-12-27T10:29:59.619Z,6.80
2022-12-27T10:32:32.637Z,6.90
2022-12-27T10:35:06.177Z,6.90
2022-12-27T10:37:36.914Z,6.90
2022-12-27T10:40:14.330Z,6.90
2022-12-27T10:42:50.311Z,6.90
2022-12-27T10:45:32.582Z,6.90
2022-12-27T10:48:18.056Z,7.00
2022-12-27T10:50:52.297Z,7.00
2022-12-27T10:53:40.585Z,7.10
2022-12-27T10:56:18.248Z,7.10
2022-12-27T10:58:56.507Z,7.20
2022-12-27T11:01:30.930Z,7.20
2022-12-27T11:04:20.753Z,7.20
2022-12-27T11:06:54.215Z,7.20
2022-12-27T11:09:30.877Z,7.30
2022-12-27T11:12:18.780Z,7.30
2022-12-27T11:15:04.039Z,7.30
2022-12-27T11:17:40.338Z,7.40
2022-12-27T11:20:24.193Z,7.30
2022-12-27T11:22:58.740Z,7.40
2022-12-27T11:25:30.960Z,7.50
2022-12-27T11:28:06.128Z,7.60
2022-12-27T11:30:40.348Z,7.60
2022-12-27T11:33:25.046Z,7.60
2022-12-27T11:36:00.929Z,7.70
2022-12-27T11:38:34.222Z,7.80
2022-12-27T11:41:07.925Z,7.80
2022-12-27T11:43:45.873Z,7.90
2022-12-27T11:46:27.197Z,8.00
2022-12-27T11:49:00.391Z,8.10
2022-12-27T11:51:52.245Z,8.10
2022-12-27T11:54:49.996Z,8.20
2022-12-27T11:57:31.043Z,8.30
2022-12-27T12:00:09.640Z,8.30
2022-12-27T12:02:59.468Z,8.30
2022-12-27T12:05:48.531Z,8.40
2022-12-27T12:08:47.037Z,8.30
2022-12-27T12:11:29.327Z,8.30
2022-12-27T12:14:29.126Z,8.30
2022-12-27T12:17:11.093Z,8.40
2022-12-27T12:20:02.925Z,8.40
2022-12-27T12:22:47.897Z,8.40
2022-12-27T12:25:49.782Z,8.40
2022-12-27T12:28:59.583Z,8.40
2022-12-27T12:32:02.302Z,8.40
2022-12-27T12:34:59.652Z,8.40
2022-12-27T12:37:48.137Z,8.50
2022-12-27T12:40:28.236Z,8.50
2022-12-27T12:43:15.663Z,8.50
2022-12-27T12:46:04.584Z,8.50
2022-12-27T12:48:59.162Z,8.50
2022-12-27T12:51:43.976Z,8.50
2022-12-27T12:54:26.693Z,8.50
2022-12-27T12:57:09.340Z,8.50
2022-12-27T13:00:12.834Z,8.50
2022-12-27T13:03:24.554Z,8.50
2022-12-27T13:06:07.200Z,8.60
2022-12-27T13:08:46.043Z,8.60
2022-12-27T13:11:37.412Z,8.60
2022-12-27T13:14:21.247Z,8.60
2022-12-27T13:17:02.081Z,8.60
2022-12-27T13:19:56.156Z,8.60
2022-12-27T13:22:43.228Z,8.70
2022-12-27T13:25:25.303Z,8.70
2022-12-27T13:28:04.484Z,8.70
2022-12-27T13:30:43.501Z,8.70
2022-12-27T13:33:27.289Z,8.70
2022-12-27T13:36:19.325Z,8.80
2022-12-27T13:39:17.318Z,8.80
2022-12-27T13:42:00.122Z,8.80
2022-12-27T13:44:52.385Z,8.80
2022-12-27T13:47:54.298Z,8.80
2022-12-27T13:50:50.686Z,8.80
2022-12-27T13:53:54.199Z,8.80
2022-12-27T13:59:58.211Z,8.80
2022-12-27T14:03:06.179Z,8.80
2022-12-27T14:06:07.919Z,8.90
2022-12-27T14:09:09.947Z,8.90
2022-12-27T14:11:54.135Z,8.90
2022-12-27T14:14:27.957Z,9.00
2022-12-27T14:17:17.341Z,9.00
2022-12-27T14:20:10.011Z,9.00
2022-12-27T14:23:03.456Z,9.00
2022-12-27T14:26:07.365Z,9.00
2022-12-27T14:29:22.658Z,9.00
2022-12-27T14:32:22.833Z,8.90
2022-12-27T14:35:19.084Z,8.90
2022-12-27T14:38:23.436Z,8.90
2022-12-27T14:41:31.171Z,8.90
2022-12-27T14:44:40.127Z,8.90
2022-12-27T14:47:45.638Z,8.90
2022-12-27T14:50:44.169Z,8.80
2022-12-27T14:53:53.476Z,8.90
2022-12-27T14:56:36.030Z,8.90
2022-12-27T14:59:31.805Z,8.80
2022-12-27T15:02:17.867Z,8.80
2022-12-27T15:05:01.994Z,8.80
2022-12-27T15:08:00.444Z,8.80
2022-12-27T15:10:56.175Z,8.70
2022-12-27T15:13:36.238Z,8.70
2022-12-27T15:16:15.780Z,8.60
2022-12-27T15:19:07.413Z,8.60
2022-12-27T15:22:00.774Z,8.60
2022-12-27T15:24:47.918Z,8.70
2022-12-27T15:27:27.997Z,8.60
2022-12-27T15:30:19.947Z,8.60
2022-12-27T15:33:02.733Z,8.50
2022-12-27T15:35:56.788Z,8.50
2022-12-27T15:38:54.516Z,8.50
2022-12-27T15:41:53.992Z,8.50
2022-12-27T15:44:46.498Z,8.50
2022-12-27T15:47:48.247Z,8.50
2022-12-27T15:50:37.772Z,8.50
2022-12-27T15:53:46.008Z,8.40
2022-12-27T15:56:31.035Z,8.40
2022-12-27T15:59:31.437Z,8.40
2022-12-27T16:02:36.603Z,8.40
2022-12-27T16:05:16.579Z,8.30
2022-12-27T16:07:50.310Z,8.30
2022-12-27T16:10:48.961Z,8.30
2022-12-27T16:13:34.450Z,8.20
2022-12-27T16:16:14.626Z,8.30
2022-12-27T16:19:02.396Z,8.30
2022-12-27T16:21:42.083Z,8.20
2022-12-27T16:24:20.335Z,8.30
2022-12-27T16:27:01.445Z,8.20
2022-12-27T16:29:35.667Z,8.20
2022-12-27T16:32:22.509Z,8.20
2022-12-27T16:34:58.112Z,8.20
2022-12-27T16:37:32.997Z,8.20
2022-12-27T16:40:38.304Z,8.20
2022-12-27T16:43:50.501Z,8.10
2022-12-27T16:46:51.757Z,8.20
2022-12-27T16:49:49.288Z,8.10
2022-12-27T16:52:48.099Z,8.20
2022-12-27T16:55:41.038Z,8.10
2022-12-27T16:58:36.243Z,8.10
2022-12-27T17:01:08.441Z,8.10
2022-12-27T17:03:56.966Z,8.10
2022-12-27T17:06:41.981Z,8.10
2022-12-27T17:09:44.165Z,8.00
2022-12-27T17:12:25.782Z,8.00
2022-12-27T17:15:06.294Z,8.00
2022-12-27T17:17:36.921Z,8.00
2022-12-27T17:20:16.070Z,8.00
2022-12-27T17:22:46.772Z,8.00
2022-12-27T17:25:28.594Z,8.00
2022-12-27T17:28:10.940Z,8.00
2022-12-27T17:30:50.746Z,7.90
2022-12-27T17:33:40.151Z,8.00
2022-12-27T17:36:37.207Z,7.90
2022-12-27T17:39:33.494Z,7.90
2022-12-27T17:42:26.813Z,7.90
2022-12-27T17:45:14.643Z,7.90
2022-12-27T17:48:02.925Z,7.90
2022-12-27T17:50:34.546Z,7.80
2022-12-27T17:53:30.227Z,7.90
2022-12-27T17:56:21.530Z,7.80
2022-12-27T17:59:04.098Z,7.80
2022-12-27T18:01:36.500Z,7.80
2022-12-27T18:04:09.004Z,7.80
2022-12-27T18:06:40.102Z,7.80
2022-12-27T18:09:11.065Z,7.80
2022-12-27T18:11:44.141Z,7.70
2022-12-27T18:14:19.421Z,7.70
2022-12-27T18:16:50.412Z,7.70
2022-12-27T18:19:22.860Z,7.70
2022-12-27T18:22:01.414Z,7.70
2022-12-27T18:24:34.674Z,7.70
2022-12-27T18:27:07.884Z,7.70
2022-12-27T18:29:40.811Z,7.70
2022-12-27T18:32:15.179Z,7.70
2022-12-27T18:34:51.808Z,7.70
2022-12-27T18:37:24.691Z,7.60
2022-12-27T18:39:57.399Z,7.60
2022-12-27T18:42:34.558Z,7.60
2022-12-27T18:45:10.267Z,7.60
2022-12-27T18:47:47.725Z,7.60
2022-12-27T18:50:21.509Z,7.60
2022-12-27T18:53:04.393Z,7.60
2022-12-27T18:55:35.185Z,7.60
2022-12-27T18:58:08.087Z,7.60
2022-12-27T19:00:50.526Z,7.60
2022-12-27T19:03:23.022Z,7.60
2022-12-27T19:06:07.136Z,7.60
2022-12-27T19:08:42.207Z,7.60
2022-12-27T19:11:26.963Z,7.50
2022-12-27T19:14:05.032Z,7.50
2022-12-27T19:16:38.617Z,7.50
2022-12-27T19:19:12.292Z,7.50
2022-12-27T19:21:43.819Z,7.50
2022-12-27T19:24:39.520Z,7.50
2022-12-27T19:27:19.492Z,7.50
2022-12-27T19:29:54.989Z,7.40
2022-12-27T19:32:33.808Z,7.50
2022-12-27T19:35:08.716Z,7.40
2022-12-27T19:37:39.026Z,7.40
2022-12-27T19:40:15.224Z,7.40
2022-12-27T19:42:48.176Z,7.50
2022-12-27T19:45:19.459Z,7.50
2022-12-27T19:47:54.566Z,7.50
2022-12-27T19:50:26.297Z,7.40
2022-12-27T19:52:56.686Z,7.40
2022-12-27T19:55:36.305Z,7.40
2022-12-27T19:58:06.647Z,7.40
2022-12-27T20:00:36.976Z,7.40
2022-12-27T20:03:11.033Z,7.40
2022-12-27T20:06:14.530Z,7.40
2022-12-27T20:08:35.590Z,7.50
2022-12-27T20:11:10.343Z,7.40
2022-12-27T20:13:40.776Z,7.40
2022-12-27T20:16:14.516Z,7.40
2022-12-27T20:18:47.682Z,7.40
2022-12-27T20:21:19.805Z,7.40
2022-12-27T20:23:51.143Z,7.40
2022-12-27T20:26:24.336Z,7.40
2022-12-27T20:28:55.361Z,7.40
2022-12-27T20:31:26.776Z,7.40
2022-12-27T20:33:59.785Z,7.40
2022-12-27T20:36:30.191Z,7.40
2022-12-27T20:39:01.019Z,7.50
2022-12-27T20:41:31.708Z,7.40
2022-12-27T20:44:02.444Z,7.40
2022-12-27T20:46:32.902Z,7.40
2022-12-27T20:49:07.155Z,7.50
2022-12-27T20:51:37.706Z,7.50
2022-12-27T20:54:08.221Z,7.50
2022-12-27T20:56:38.710Z,7.50
2022-12-27T20:59:09.304Z,7.50
2022-12-27T21:01:39.873Z,7.50
2022-12-27T21:04:13.672Z,7.50
2022-12-27T21:06:44.001Z,7.50
2022-12-27T21:09:14.344Z,7.50
2022-12-27T21:11:44.767Z,7.50
2022-12-27T21:14:15.858Z,7.60
2022-12-27T21:16:49.065Z,7.60
2022-12-27T21:19:22.222Z,7.60
2022-12-27T21:21:52.766Z,7.60
2022-12-27T21:24:23.207Z,7.60
2022-12-27T21:26:56.592Z,7.60
2022-12-27T21:29:27.276Z,7.60
2022-12-27T21:31:57.725Z,7.60
2022-12-27T21:34:31.252Z,7.70
2022-12-27T21:37:08.689Z,7.70
2022-12-27T21:39:41.909Z,7.70
2022-12-27T21:42:12.547Z,7.60
2022-12-27T21:44:42.904Z,7.70
2022-12-27T21:47:13.374Z,7.60
2022-12-27T21:49:46.318Z,7.70
2022-12-27T21:52:16.679Z,7.60
2022-12-27T21:54:47.037Z,7.70
2022-12-27T21:57:17.539Z,7.70
2022-12-27T21:59:47.902Z,7.70
2022-12-27T22:02:18.732Z,7.70
2022-12-27T22:04:51.884Z,7.70
2022-12-27T22:07:22.309Z,7.70
2022-12-27T22:09:52.666Z,7.80
2022-12-27T22:12:23.133Z,7.70
2022-12-27T22:14:53.511Z,7.80
2022-12-27T22:17:23.924Z,7.80
2022-12-27T22:19:56.971Z,7.80
2022-12-27T22:22:27.493Z,7.80
2022-12-27T22:24:57.912Z,7.80
2022-12-27T22:27:28.307Z,7.80
2022-12-27T22:29:58.680Z,7.80
2022-12-27T22:32:29.060Z,7.80
2022-12-27T22:35:02.011Z,7.80
2022-12-27T22:37:32.386Z,7.80
2022-12-27T22:40:02.722Z,7.90
2022-12-27T22:42:34.111Z,7.80
2022-12-27T22:45:04.515Z,7.80
2022-12-27T22:47:34.969Z,7.80
2022-12-27T22:50:08.690Z,7.90
2022-12-27T22:52:39.070Z,7.90
2022-12-27T22:55:10.252Z,7.90
2022-12-27T22:57:41.307Z,7.90
2022-12-27T23:00:16.134Z,7.90
2022-12-27T23:02:46.541Z,7.90
2022-12-27T23:05:19.647Z,7.90
2022-12-27T23:08:04.859Z,7.90
2022-12-27T23:10:37.148Z,7.90
2022-12-27T23:13:07.507Z,7.90
2022-12-27T23:15:37.900Z,7.90
2022-12-27T23:18:08.537Z,8.00
2022-12-27T23:21:21.432Z,8.00
2022-12-27T23:23:31.836Z,8.00
2022-12-27T23:26:07.776Z,8.00
2022-12-27T23:28:39.664Z,8.00
2022-12-27T23:31:11.484Z,8.00
2022-12-27T23:33:42.552Z,8.00
2022-12-27T23:36:16.275Z,7.90
2022-12-27T23:38:47.421Z,8.00
2022-12-27T23:41:19.719Z,7.90
2022-12-27T23:43:53.242Z,8.00
2022-12-27T23:46:27.690Z,8.00
2022-12-27T23:48:58.883Z,8.00
2022-12-27T23:51:34.791Z,8.00
2022-12-27T23:54:05.684Z,8.10
2022-12-27T23:56:36.768Z,8.00
2022-12-27T23:59:10.107Z,8.10
